sensor_id;sensor_type;location;lat;lon;timestamp;pressure;altitude;pressure_sealevel;temperature;humidity
62600;BME280;48671;48.922;2.346;2023-08-31T00:01:47;100969.06;;;20.97;45.35
62600;BME280;48671;48.922;2.346;2023-08-31T00:04:13;100977.59;;;21.00;44.99
62600;BME280;48671;48.922;2.346;2023-08-31T00:06:40;100976.78;;;21.00;44.69
62600;BME280;48671;48.922;2.346;2023-08-31T00:09:06;100986.25;;;21.02;45.14
62600;BME280;48671;48.922;2.346;2023-08-31T00:11:35;100989.03;;;21.01;44.81
62600;BME280;48671;48.922;2.346;2023-08-31T00:14:01;100990.47;;;21.05;45.37
62600;BME280;48671;48.922;2.346;2023-08-31T00:16:26;101004.88;;;21.12;45.69
62600;BME280;48671;48.922;2.346;2023-08-31T00:18:52;100993.34;;;21.02;45.36
62600;BME280;48671;48.922;2.346;2023-08-31T00:21:18;100981.47;;;20.96;45.51
62600;BME280;48671;48.922;2.346;2023-08-31T00:23:43;101002.50;;;21.09;45.65
62600;BME280;48671;48.922;2.346;2023-08-31T00:26:08;100989.84;;;21.01;45.09
62600;BME280;48671;48.922;2.346;2023-08-31T00:28:34;100989.50;;;20.95;45.07
62600;BME280;48671;48.922;2.346;2023-08-31T00:31:01;100994.78;;;20.84;45.42
62600;BME280;48671;48.922;2.346;2023-08-31T00:33:29;100989.50;;;20.84;45.13
62600;BME280;48671;48.922;2.346;2023-08-31T00:35:55;100973.75;;;20.71;44.89
62600;BME280;48671;48.922;2.346;2023-08-31T00:38:21;100988.78;;;20.81;45.41
62600;BME280;48671;48.922;2.346;2023-08-31T00:40:46;100957.28;;;20.67;45.82
62600;BME280;48671;48.922;2.346;2023-08-31T00:43:13;100973.13;;;20.78;45.56
62600;BME280;48671;48.922;2.346;2023-08-31T00:45:40;100954.63;;;20.67;45.66
62600;BME280;48671;48.922;2.346;2023-08-31T00:48:06;100970.97;;;20.72;45.59
62600;BME280;48671;48.922;2.346;2023-08-31T00:50:32;100977.31;;;20.70;45.58
62600;BME280;48671;48.922;2.346;2023-08-31T00:52:57;100983.81;;;20.66;45.75
62600;BME280;48671;48.922;2.346;2023-08-31T00:55:23;100979.22;;;20.56;46.09
62600;BME280;48671;48.922;2.346;2023-08-31T00:57:49;100962.91;;;20.51;45.76
62600;BME280;48671;48.922;2.346;2023-08-31T01:00:14;100952.75;;;20.45;45.84
62600;BME280;48671;48.922;2.346;2023-08-31T01:02:53;100965.75;;;20.48;45.82
62600;BME280;48671;48.922;2.346;2023-08-31T01:07:59;100980.81;;;20.59;46.06
62600;BME280;48671;48.922;2.346;2023-08-31T01:10:58;100976.81;;;20.53;45.86
62600;BME280;48671;48.922;2.346;2023-08-31T01:13:30;100960.31;;;20.39;46.29
62600;BME280;48671;48.922;2.346;2023-08-31T01:16:00;100976.78;;;20.42;45.86
62600;BME280;48671;48.922;2.346;2023-08-31T01:18:28;100984.25;;;20.48;45.53
62600;BME280;48671;48.922;2.346;2023-08-31T01:23:55;100976.53;;;20.45;46.30
62600;BME280;48671;48.922;2.346;2023-08-31T01:26:22;100968.97;;;20.41;46.55
62600;BME280;48671;48.922;2.346;2023-08-31T01:28:48;100985.91;;;20.49;46.96
62600;BME280;48671;48.922;2.346;2023-08-31T01:31:14;100981.47;;;20.50;46.51
62600;BME280;48671;48.922;2.346;2023-08-31T01:33:41;100972.31;;;20.43;46.46
62600;BME280;48671;48.922;2.346;2023-08-31T01:36:14;100984.75;;;20.53;46.08
62600;BME280;48671;48.922;2.346;2023-08-31T01:38:42;100996.91;;;20.56;46.25
62600;BME280;48671;48.922;2.346;2023-08-31T01:41:13;100999.22;;;20.61;46.80
62600;BME280;48671;48.922;2.346;2023-08-31T01:43:42;100992.13;;;20.61;46.41
62600;BME280;48671;48.922;2.346;2023-08-31T01:46:08;100997.50;;;20.60;45.94
62600;BME280;48671;48.922;2.346;2023-08-31T01:48:39;100986.31;;;20.56;46.31
62600;BME280;48671;48.922;2.346;2023-08-31T01:51:05;101002.56;;;20.63;46.61
62600;BME280;48671;48.922;2.346;2023-08-31T01:53:30;100970.81;;;20.51;46.15
62600;BME280;48671;48.922;2.346;2023-08-31T01:55:56;100975.16;;;20.52;46.37
62600;BME280;48671;48.922;2.346;2023-08-31T01:58:21;100976.81;;;20.53;46.33
62600;BME280;48671;48.922;2.346;2023-08-31T02:00:48;100977.06;;;20.50;46.78
62600;BME280;48671;48.922;2.346;2023-08-31T02:03:13;100973.94;;;20.56;46.71
62600;BME280;48671;48.922;2.346;2023-08-31T02:05:38;100978.06;;;20.61;46.41
62600;BME280;48671;48.922;2.346;2023-08-31T02:08:04;100984.66;;;20.66;45.93
62600;BME280;48671;48.922;2.346;2023-08-31T02:10:29;100981.41;;;20.63;46.12
62600;BME280;48671;48.922;2.346;2023-08-31T02:12:54;100986.34;;;20.67;46.82
62600;BME280;48671;48.922;2.346;2023-08-31T02:15:20;100975.28;;;20.62;46.20
62600;BME280;48671;48.922;2.346;2023-08-31T02:17:45;100975.50;;;20.59;46.39
62600;BME280;48671;48.922;2.346;2023-08-31T02:20:11;100973.25;;;20.54;46.54
62600;BME280;48671;48.922;2.346;2023-08-31T02:22:36;100972.50;;;20.52;46.70
62600;BME280;48671;48.922;2.346;2023-08-31T02:25:02;100977.22;;;20.60;46.38
62600;BME280;48671;48.922;2.346;2023-08-31T02:27:28;100977.81;;;20.64;46.97
62600;BME280;48671;48.922;2.346;2023-08-31T02:29:53;100978.75;;;20.63;46.86
62600;BME280;48671;48.922;2.346;2023-08-31T02:32:19;100974.94;;;20.67;46.83
62600;BME280;48671;48.922;2.346;2023-08-31T02:34:44;100963.75;;;20.63;46.49
62600;BME280;48671;48.922;2.346;2023-08-31T02:37:10;100976.72;;;20.66;46.85
62600;BME280;48671;48.922;2.346;2023-08-31T02:39:35;100976.94;;;20.63;46.94
62600;BME280;48671;48.922;2.346;2023-08-31T02:42:00;100990.06;;;20.76;46.37
62600;BME280;48671;48.922;2.346;2023-08-31T02:44:26;100981.44;;;20.74;46.20
62600;BME280;48671;48.922;2.346;2023-08-31T02:46:51;100979.13;;;20.69;46.79
62600;BME280;48671;48.922;2.346;2023-08-31T02:49:17;100976.84;;;20.65;46.83
62600;BME280;48671;48.922;2.346;2023-08-31T02:51:42;100989.00;;;20.67;46.26
62600;BME280;48671;48.922;2.346;2023-08-31T02:54:07;100972.88;;;20.59;46.96
62600;BME280;48671;48.922;2.346;2023-08-31T02:56:32;100979.38;;;20.66;47.35
62600;BME280;48671;48.922;2.346;2023-08-31T02:58:58;100973.47;;;20.63;46.57
62600;BME280;48671;48.922;2.346;2023-08-31T03:01:23;100994.91;;;20.71;46.71
62600;BME280;48671;48.922;2.346;2023-08-31T03:03:49;100984.41;;;20.69;47.00
62600;BME280;48671;48.922;2.346;2023-08-31T03:06:15;100984.66;;;20.66;46.80
62600;BME280;48671;48.922;2.346;2023-08-31T03:08:40;100973.84;;;20.58;46.89
62600;BME280;48671;48.922;2.346;2023-08-31T03:11:06;100988.41;;;20.64;46.57
62600;BME280;48671;48.922;2.346;2023-08-31T03:13:32;100970.06;;;20.49;46.66
62600;BME280;48671;48.922;2.346;2023-08-31T03:15:58;100958.03;;;20.45;46.32
62600;BME280;48671;48.922;2.346;2023-08-31T03:18:24;100957.53;;;20.40;46.49
62600;BME280;48671;48.922;2.346;2023-08-31T03:20:49;100984.66;;;20.55;47.31
62600;BME280;48671;48.922;2.346;2023-08-31T03:23:15;100961.28;;;20.38;46.44
62600;BME280;48671;48.922;2.346;2023-08-31T03:25:41;100980.25;;;20.43;46.59
62600;BME280;48671;48.922;2.346;2023-08-31T03:28:06;100963.53;;;20.31;46.62
62600;BME280;48671;48.922;2.346;2023-08-31T03:30:31;100977.50;;;20.44;46.82
62600;BME280;48671;48.922;2.346;2023-08-31T03:32:57;100963.69;;;20.41;46.83
62600;BME280;48671;48.922;2.346;2023-08-31T03:35:22;100956.84;;;20.38;47.09
62600;BME280;48671;48.922;2.346;2023-08-31T03:37:52;100977.38;;;20.46;46.96
62600;BME280;48671;48.922;2.346;2023-08-31T03:40:17;100967.78;;;20.45;47.02
62600;BME280;48671;48.922;2.346;2023-08-31T03:42:42;100953.59;;;20.34;46.59
62600;BME280;48671;48.922;2.346;2023-08-31T03:45:08;100964.75;;;20.38;47.27
62600;BME280;48671;48.922;2.346;2023-08-31T03:47:33;100984.69;;;20.42;46.98
62600;BME280;48671;48.922;2.346;2023-08-31T03:49:59;100972.69;;;20.38;47.32
62600;BME280;48671;48.922;2.346;2023-08-31T03:52:24;100959.81;;;20.33;47.19
62600;BME280;48671;48.922;2.346;2023-08-31T03:54:51;100975.19;;;20.40;47.17
62600;BME280;48671;48.922;2.346;2023-08-31T03:57:16;100962.31;;;20.24;47.45
62600;BME280;48671;48.922;2.346;2023-08-31T03:59:41;100975.78;;;20.32;47.57
62600;BME280;48671;48.922;2.346;2023-08-31T04:02:07;100954.50;;;20.22;47.03
62600;BME280;48671;48.922;2.346;2023-08-31T04:04:32;100955.69;;;20.18;47.51
62600;BME280;48671;48.922;2.346;2023-08-31T04:06:59;100973.44;;;20.16;47.26
62600;BME280;48671;48.922;2.346;2023-08-31T04:09:25;100956.97;;;20.01;47.50
62600;BME280;48671;48.922;2.346;2023-08-31T04:11:50;100957.44;;;20.06;48.02
62600;BME280;48671;48.922;2.346;2023-08-31T04:14:15;100972.81;;;20.01;47.80
62600;BME280;48671;48.922;2.346;2023-08-31T04:16:42;100987.56;;;20.04;47.86
62600;BME280;48671;48.922;2.346;2023-08-31T04:19:08;100966.19;;;19.96;48.10
62600;BME280;48671;48.922;2.346;2023-08-31T04:21:33;100970.72;;;19.94;48.46
62600;BME280;48671;48.922;2.346;2023-08-31T04:23:58;100969.63;;;19.85;48.46
62600;BME280;48671;48.922;2.346;2023-08-31T04:26:25;100979.66;;;19.80;48.37
62600;BME280;48671;48.922;2.346;2023-08-31T04:28:50;100977.63;;;19.83;48.17
62600;BME280;48671;48.922;2.346;2023-08-31T04:31:16;100976.06;;;19.81;48.05
62600;BME280;48671;48.922;2.346;2023-08-31T04:33:41;100968.97;;;19.81;48.04
62600;BME280;48671;48.922;2.346;2023-08-31T04:36:06;100966.34;;;19.81;48.08
62600;BME280;48671;48.922;2.346;2023-08-31T04:38:33;100987.13;;;19.86;48.47
62600;BME280;48671;48.922;2.346;2023-08-31T04:40:59;100974.81;;;19.74;48.32
62600;BME280;48671;48.922;2.346;2023-08-31T04:43:25;100980.72;;;19.77;48.70
62600;BME280;48671;48.922;2.346;2023-08-31T04:45:51;101000.34;;;19.86;48.74
62600;BME280;48671;48.922;2.346;2023-08-31T04:48:17;100999.94;;;19.79;48.65
62600;BME280;48671;48.922;2.346;2023-08-31T04:50:42;101001.31;;;19.85;48.60
62600;BME280;48671;48.922;2.346;2023-08-31T04:53:07;101007.44;;;19.85;49.09
62600;BME280;48671;48.922;2.346;2023-08-31T04:55:33;101000.78;;;19.80;48.42
62600;BME280;48671;48.922;2.346;2023-08-31T04:57:58;100997.41;;;19.78;48.29
62600;BME280;48671;48.922;2.346;2023-08-31T05:00:24;101001.75;;;19.79;48.81
62600;BME280;48671;48.922;2.346;2023-08-31T05:02:49;100993.66;;;19.69;49.25
62600;BME280;48671;48.922;2.346;2023-08-31T05:05:14;101008.66;;;19.69;49.27
62600;BME280;48671;48.922;2.346;2023-08-31T05:07:40;101004.63;;;19.63;49.16
62600;BME280;48671;48.922;2.346;2023-08-31T05:10:07;101006.44;;;19.62;49.14
62600;BME280;48671;48.922;2.346;2023-08-31T05:12:33;100999.56;;;19.60;49.21
62600;BME280;48671;48.922;2.346;2023-08-31T05:14:58;100996.78;;;19.61;49.00
62600;BME280;48671;48.922;2.346;2023-08-31T05:17:23;101009.50;;;19.69;49.37
62600;BME280;48671;48.922;2.346;2023-08-31T05:19:48;100992.28;;;19.63;49.13
62600;BME280;48671;48.922;2.346;2023-08-31T05:22:15;101003.88;;;19.74;49.06
62600;BME280;48671;48.922;2.346;2023-08-31T05:24:40;100987.94;;;19.62;48.78
62600;BME280;48671;48.922;2.346;2023-08-31T05:27:06;100991.13;;;19.68;48.83
62600;BME280;48671;48.922;2.346;2023-08-31T05:29:31;101023.59;;;19.81;49.06
62600;BME280;48671;48.922;2.346;2023-08-31T05:31:56;100992.91;;;19.67;48.50
62600;BME280;48671;48.922;2.346;2023-08-31T05:34:22;101018.75;;;19.75;48.68
62600;BME280;48671;48.922;2.346;2023-08-31T05:36:48;101014.94;;;19.79;48.59
62600;BME280;48671;48.922;2.346;2023-08-31T05:39:13;101003.38;;;19.69;48.60
62600;BME280;48671;48.922;2.346;2023-08-31T05:41:41;101022.13;;;19.77;48.45
62600;BME280;48671;48.922;2.346;2023-08-31T05:44:08;101028.03;;;19.80;48.28
62600;BME280;48671;48.922;2.346;2023-08-31T05:46:33;101028.16;;;19.79;48.60
62600;BME280;48671;48.922;2.346;2023-08-31T05:48:58;101012.00;;;19.71;48.63
62600;BME280;48671;48.922;2.346;2023-08-31T05:51:24;101002.06;;;19.61;48.57
62600;BME280;48671;48.922;2.346;2023-08-31T05:53:49;101014.78;;;19.69;48.80
62600;BME280;48671;48.922;2.346;2023-08-31T05:56:15;101018.34;;;19.68;48.58
62600;BME280;48671;48.922;2.346;2023-08-31T05:58:40;101029.00;;;19.79;49.03
62600;BME280;48671;48.922;2.346;2023-08-31T06:01:06;101026.34;;;19.79;48.99
62600;BME280;48671;48.922;2.346;2023-08-31T06:03:32;101045.66;;;19.80;48.72
62600;BME280;48671;48.922;2.346;2023-08-31T06:05:59;101041.34;;;19.79;48.96
62600;BME280;48671;48.922;2.346;2023-08-31T06:08:24;101027.22;;;19.67;48.92
62600;BME280;48671;48.922;2.346;2023-08-31T06:10:50;101043.38;;;19.75;49.05
62600;BME280;48671;48.922;2.346;2023-08-31T06:13:16;101030.28;;;19.61;49.55
62600;BME280;48671;48.922;2.346;2023-08-31T06:15:41;101048.25;;;19.69;49.37
62600;BME280;48671;48.922;2.346;2023-08-31T06:18:07;101036.00;;;19.55;49.53
62600;BME280;48671;48.922;2.346;2023-08-31T06:20:32;101035.69;;;19.59;49.57
62600;BME280;48671;48.922;2.346;2023-08-31T06:22:59;101040.81;;;19.74;48.95
62600;BME280;48671;48.922;2.346;2023-08-31T06:25:24;101040.75;;;19.75;48.99
62600;BME280;48671;48.922;2.346;2023-08-31T06:27:50;101041.00;;;19.83;49.58
62600;BME280;48671;48.922;2.346;2023-08-31T06:30:17;101021.50;;;19.73;49.34
62600;BME280;48671;48.922;2.346;2023-08-31T06:32:44;101043.88;;;19.80;49.16
62600;BME280;48671;48.922;2.346;2023-08-31T06:35:11;101048.66;;;19.75;49.81
62600;BME280;48671;48.922;2.346;2023-08-31T06:37:41;101052.44;;;19.71;49.35
62600;BME280;48671;48.922;2.346;2023-08-31T06:40:07;101053.19;;;19.73;49.21
62600;BME280;48671;48.922;2.346;2023-08-31T06:42:34;101043.81;;;19.69;48.86
62600;BME280;48671;48.922;2.346;2023-08-31T06:44:59;101061.84;;;19.75;49.13
62600;BME280;48671;48.922;2.346;2023-08-31T06:47:25;101050.66;;;19.72;49.02
62600;BME280;48671;48.922;2.346;2023-08-31T06:49:50;101054.44;;;19.80;48.90
62600;BME280;48671;48.922;2.346;2023-08-31T06:52:16;101043.25;;;19.77;49.12
62600;BME280;48671;48.922;2.346;2023-08-31T06:54:41;101046.84;;;19.76;49.10
62600;BME280;48671;48.922;2.346;2023-08-31T06:57:07;101059.72;;;19.80;48.96
62600;BME280;48671;48.922;2.346;2023-08-31T06:59:32;101045.28;;;19.73;49.32
62600;BME280;48671;48.922;2.346;2023-08-31T07:01:58;101058.53;;;19.84;48.91
62600;BME280;48671;48.922;2.346;2023-08-31T07:04:23;101057.81;;;19.82;49.19
62600;BME280;48671;48.922;2.346;2023-08-31T07:06:48;101056.44;;;19.77;49.07
62600;BME280;48671;48.922;2.346;2023-08-31T07:09:14;101070.63;;;19.76;49.79
62600;BME280;48671;48.922;2.346;2023-08-31T07:11:39;101069.47;;;19.67;49.18
62600;BME280;48671;48.922;2.346;2023-08-31T07:14:04;101069.47;;;19.67;49.51
62600;BME280;48671;48.922;2.346;2023-08-31T07:16:30;101062.50;;;19.66;49.55
62600;BME280;48671;48.922;2.346;2023-08-31T07:18:55;101075.16;;;19.74;49.62
62600;BME280;48671;48.922;2.346;2023-08-31T07:21:21;101068.91;;;19.75;49.05
62600;BME280;48671;48.922;2.346;2023-08-31T07:23:47;101076.19;;;19.84;49.03
62600;BME280;48671;48.922;2.346;2023-08-31T07:26:13;101066.34;;;19.86;49.34
62600;BME280;48671;48.922;2.346;2023-08-31T07:28:38;101070.13;;;19.95;48.88
62600;BME280;48671;48.922;2.346;2023-08-31T07:31:05;101077.28;;;20.05;48.99
62600;BME280;48671;48.922;2.346;2023-08-31T07:33:31;101088.03;;;20.15;48.67
62600;BME280;48671;48.922;2.346;2023-08-31T07:35:58;101067.66;;;20.04;48.43
62600;BME280;48671;48.922;2.346;2023-08-31T07:38:24;101084.41;;;20.16;48.16
62600;BME280;48671;48.922;2.346;2023-08-31T07:40:50;101090.09;;;20.23;48.24
62600;BME280;48671;48.922;2.346;2023-08-31T07:43:15;101073.75;;;20.18;48.12
62600;BME280;48671;48.922;2.346;2023-08-31T07:45:41;101081.41;;;20.21;48.43
62600;BME280;48671;48.922;2.346;2023-08-31T07:48:06;101090.47;;;20.29;48.50
62600;BME280;48671;48.922;2.346;2023-08-31T07:50:33;101099.53;;;20.38;47.87
62600;BME280;48671;48.922;2.346;2023-08-31T07:52:59;101085.19;;;20.29;47.79
62600;BME280;48671;48.922;2.346;2023-08-31T07:55:27;101088.13;;;20.38;48.02
62600;BME280;48671;48.922;2.346;2023-08-31T07:57:52;101090.19;;;20.45;47.62
62600;BME280;48671;48.922;2.346;2023-08-31T08:00:18;101100.97;;;20.55;47.42
62600;BME280;48671;48.922;2.346;2023-08-31T08:02:46;101094.38;;;20.61;47.49
62600;BME280;48671;48.922;2.346;2023-08-31T08:05:12;101070.22;;;20.65;47.30
62600;BME280;48671;48.922;2.346;2023-08-31T08:07:37;101078.00;;;20.91;47.16
62600;BME280;48671;48.922;2.346;2023-08-31T08:10:03;101085.47;;;21.08;46.66
62600;BME280;48671;48.922;2.346;2023-08-31T08:12:40;101079.22;;;21.09;46.29
62600;BME280;48671;48.922;2.346;2023-08-31T08:15:06;101098.81;;;21.18;46.08
62600;BME280;48671;48.922;2.346;2023-08-31T08:17:33;101103.16;;;21.19;46.38
62600;BME280;48671;48.922;2.346;2023-08-31T08:19:59;101079.56;;;21.04;45.60
62600;BME280;48671;48.922;2.346;2023-08-31T08:22:25;101098.81;;;21.18;45.98
62600;BME280;48671;48.922;2.346;2023-08-31T08:24:50;101070.91;;;21.02;45.62
62600;BME280;48671;48.922;2.346;2023-08-31T08:27:16;101090.41;;;21.13;45.07
62600;BME280;48671;48.922;2.346;2023-08-31T08:29:43;101104.03;;;21.19;45.46
62600;BME280;48671;48.922;2.346;2023-08-31T08:32:08;101101.13;;;21.22;44.93
62600;BME280;48671;48.922;2.346;2023-08-31T08:34:34;101085.84;;;21.15;44.97
62600;BME280;48671;48.922;2.346;2023-08-31T08:36:59;101085.59;;;21.07;45.15
62600;BME280;48671;48.922;2.346;2023-08-31T08:39:24;101088.47;;;21.03;44.63
62600;BME280;48671;48.922;2.346;2023-08-31T08:41:50;101103.88;;;21.10;44.58
62600;BME280;48671;48.922;2.346;2023-08-31T08:44:21;101094.47;;;21.05;44.81
62600;BME280;48671;48.922;2.346;2023-08-31T08:46:48;101096.78;;;21.10;44.11
62600;BME280;48671;48.922;2.346;2023-08-31T08:49:15;101093.41;;;21.08;44.13
62600;BME280;48671;48.922;2.346;2023-08-31T08:51:41;101097.63;;;21.11;44.10
62600;BME280;48671;48.922;2.346;2023-08-31T08:54:07;101101.47;;;21.18;43.69
62600;BME280;48671;48.922;2.346;2023-08-31T08:56:33;101092.56;;;21.19;43.91
62600;BME280;48671;48.922;2.346;2023-08-31T08:58:59;101092.81;;;21.27;43.46
62600;BME280;48671;48.922;2.346;2023-08-31T09:01:25;101110.03;;;21.33;44.12
62600;BME280;48671;48.922;2.346;2023-08-31T09:03:51;101091.25;;;21.24;43.90
62600;BME280;48671;48.922;2.346;2023-08-31T09:06:17;101094.50;;;21.28;43.87
62600;BME280;48671;48.922;2.346;2023-08-31T09:08:42;101095.25;;;21.30;44.42
62600;BME280;48671;48.922;2.346;2023-08-31T09:11:08;101090.78;;;21.31;43.58
62600;BME280;48671;48.922;2.346;2023-08-31T09:13:33;101097.66;;;21.33;44.46
62600;BME280;48671;48.922;2.346;2023-08-31T09:15:59;101083.06;;;21.27;44.16
62600;BME280;48671;48.922;2.346;2023-08-31T09:18:29;101067.50;;;21.36;44.00
62600;BME280;48671;48.922;2.346;2023-08-31T09:20:57;101092.16;;;21.59;44.21
62600;BME280;48671;48.922;2.346;2023-08-31T09:23:22;101085.88;;;21.60;44.17
62600;BME280;48671;48.922;2.346;2023-08-31T09:25:52;101080.34;;;21.63;43.85
62600;BME280;48671;48.922;2.346;2023-08-31T09:28:26;101082.50;;;21.58;43.59
62600;BME280;48671;48.922;2.346;2023-08-31T09:30:53;101089.13;;;21.63;43.86
62600;BME280;48671;48.922;2.346;2023-08-31T09:33:19;101112.69;;;21.78;43.83
62600;BME280;48671;48.922;2.346;2023-08-31T09:35:56;101090.19;;;21.83;44.38
62600;BME280;48671;48.922;2.346;2023-08-31T09:38:22;101108.47;;;21.86;43.21
62600;BME280;48671;48.922;2.346;2023-08-31T09:40:48;101093.31;;;21.88;43.33
62600;BME280;48671;48.922;2.346;2023-08-31T09:43:22;101084.63;;;21.97;43.89
62600;BME280;48671;48.922;2.346;2023-08-31T09:45:49;101070.28;;;22.00;43.79
62600;BME280;48671;48.922;2.346;2023-08-31T09:48:16;101068.94;;;22.06;43.55
62600;BME280;48671;48.922;2.346;2023-08-31T09:50:43;101082.16;;;22.17;43.60
62600;BME280;48671;48.922;2.346;2023-08-31T09:53:10;101080.03;;;22.11;43.88
62600;BME280;48671;48.922;2.346;2023-08-31T09:55:39;101061.72;;;22.08;43.55
62600;BME280;48671;48.922;2.346;2023-08-31T09:58:06;101081.09;;;22.08;44.45
62600;BME280;48671;48.922;2.346;2023-08-31T10:00:32;101077.03;;;22.04;45.37
62600;BME280;48671;48.922;2.346;2023-08-31T10:03:02;101068.50;;;21.89;45.67
62600;BME280;48671;48.922;2.346;2023-08-31T10:05:28;101078.13;;;21.90;45.79
62600;BME280;48671;48.922;2.346;2023-08-31T10:07:53;101091.13;;;21.93;45.83
62600;BME280;48671;48.922;2.346;2023-08-31T10:10:19;101071.03;;;21.91;46.28
62600;BME280;48671;48.922;2.346;2023-08-31T10:12:48;101080.84;;;22.11;45.84
62600;BME280;48671;48.922;2.346;2023-08-31T10:15:15;101066.34;;;21.94;46.12
62600;BME280;48671;48.922;2.346;2023-08-31T10:17:41;101068.88;;;21.85;46.05
62600;BME280;48671;48.922;2.346;2023-08-31T10:20:08;101075.38;;;21.81;47.09
62600;BME280;48671;48.922;2.346;2023-08-31T10:22:35;101072.03;;;21.79;47.36
62600;BME280;48671;48.922;2.346;2023-08-31T10:25:05;101077.41;;;21.77;47.20
62600;BME280;48671;48.922;2.346;2023-08-31T10:27:43;101075.25;;;21.71;48.56
62600;BME280;48671;48.922;2.346;2023-08-31T10:30:26;101066.84;;;21.55;48.00
62600;BME280;48671;48.922;2.346;2023-08-31T10:35:50;101073.84;;;21.67;48.52
62600;BME280;48671;48.922;2.346;2023-08-31T10:38:30;101080.66;;;21.81;48.58
62600;BME280;48671;48.922;2.346;2023-08-31T10:46:35;101049.78;;;21.59;49.16
62600;BME280;48671;48.922;2.346;2023-08-31T10:49:13;101058.06;;;21.54;49.67
62600;BME280;48671;48.922;2.346;2023-08-31T10:51:49;101075.63;;;21.66;48.81
62600;BME280;48671;48.922;2.346;2023-08-31T10:56:55;101070.97;;;21.59;49.06
62600;BME280;48671;48.922;2.346;2023-08-31T10:59:26;101051.09;;;21.53;48.67
62600;BME280;48671;48.922;2.346;2023-08-31T11:02:06;101049.53;;;21.62;47.62
62600;BME280;48671;48.922;2.346;2023-08-31T11:04:52;101061.44;;;21.67;47.63
62600;BME280;48671;48.922;2.346;2023-08-31T11:07:19;101042.19;;;21.65;47.32
62600;BME280;48671;48.922;2.346;2023-08-31T11:09:46;101053.59;;;21.77;47.64
62600;BME280;48671;48.922;2.346;2023-08-31T11:12:12;101058.66;;;21.69;46.89
62600;BME280;48671;48.922;2.346;2023-08-31T11:14:38;101042.69;;;21.59;46.77
62600;BME280;48671;48.922;2.346;2023-08-31T11:17:04;101049.41;;;21.63;46.69
62600;BME280;48671;48.922;2.346;2023-08-31T11:19:30;101041.81;;;21.70;46.66
62600;BME280;48671;48.922;2.346;2023-08-31T11:21:56;101026.06;;;21.68;46.93
62600;BME280;48671;48.922;2.346;2023-08-31T11:24:22;101043.25;;;21.74;45.68
62600;BME280;48671;48.922;2.346;2023-08-31T11:26:51;101021.59;;;21.69;45.92
62600;BME280;48671;48.922;2.346;2023-08-31T11:29:17;101045.19;;;21.72;47.03
62600;BME280;48671;48.922;2.346;2023-08-31T11:31:43;101024.00;;;21.61;47.61
62600;BME280;48671;48.922;2.346;2023-08-31T11:34:16;101034.84;;;21.69;47.85
62600;BME280;48671;48.922;2.346;2023-08-31T11:36:42;101033.88;;;21.70;48.15
62600;BME280;48671;48.922;2.346;2023-08-31T11:39:14;101040.00;;;21.82;48.46
62600;BME280;48671;48.922;2.346;2023-08-31T11:41:40;101033.34;;;21.87;47.99
62600;BME280;48671;48.922;2.346;2023-08-31T11:44:12;101033.44;;;21.97;48.42
62600;BME280;48671;48.922;2.346;2023-08-31T11:46:39;101025.63;;;21.95;48.03
62600;BME280;48671;48.922;2.346;2023-08-31T11:49:07;101020.19;;;21.97;47.84
62600;BME280;48671;48.922;2.346;2023-08-31T11:51:34;101042.34;;;22.07;47.04
62600;BME280;48671;48.922;2.346;2023-08-31T11:54:03;101028.28;;;21.84;47.29
62600;BME280;48671;48.922;2.346;2023-08-31T11:56:46;101050.44;;;21.83;47.05
62600;BME280;48671;48.922;2.346;2023-08-31T11:59:18;101037.59;;;21.67;46.08
62600;BME280;48671;48.922;2.346;2023-08-31T12:01:45;101040.13;;;21.58;46.79
62600;BME280;48671;48.922;2.346;2023-08-31T12:04:21;101062.31;;;21.45;45.88
62600;BME280;48671;48.922;2.346;2023-08-31T12:06:52;101047.03;;;21.38;47.97
62600;BME280;48671;48.922;2.346;2023-08-31T12:09:20;101040.88;;;21.26;48.73
62600;BME280;48671;48.922;2.346;2023-08-31T12:11:52;101057.34;;;21.30;50.55
62600;BME280;48671;48.922;2.346;2023-08-31T12:14:23;101068.03;;;21.28;48.96
62600;BME280;48671;48.922;2.346;2023-08-31T12:16:49;101071.66;;;21.16;50.79
62600;BME280;48671;48.922;2.346;2023-08-31T12:19:15;101070.28;;;20.99;50.36
62600;BME280;48671;48.922;2.346;2023-08-31T12:21:44;101079.66;;;20.92;49.76
62600;BME280;48671;48.922;2.346;2023-08-31T12:24:11;101058.22;;;20.72;50.63
62600;BME280;48671;48.922;2.346;2023-08-31T12:26:37;101072.63;;;20.68;52.95
62600;BME280;48671;48.922;2.346;2023-08-31T12:29:03;101058.66;;;20.55;52.53
62600;BME280;48671;48.922;2.346;2023-08-31T12:31:32;101066.59;;;20.55;54.03
62600;BME280;48671;48.922;2.346;2023-08-31T12:33:58;101049.34;;;20.49;54.42
62600;BME280;48671;48.922;2.346;2023-08-31T12:36:25;101072.94;;;20.52;54.98
62600;BME280;48671;48.922;2.346;2023-08-31T12:38:50;101053.38;;;20.31;54.59
62600;BME280;48671;48.922;2.346;2023-08-31T12:41:17;101050.97;;;20.28;55.03
62600;BME280;48671;48.922;2.346;2023-08-31T12:43:42;101056.34;;;20.26;56.09
62600;BME280;48671;48.922;2.346;2023-08-31T12:46:07;101051.28;;;20.23;56.05
62600;BME280;48671;48.922;2.346;2023-08-31T12:48:34;101039.72;;;20.13;56.63
62600;BME280;48671;48.922;2.346;2023-08-31T12:51:00;101029.50;;;20.08;56.24
62600;BME280;48671;48.922;2.346;2023-08-31T12:53:25;101041.69;;;20.22;57.05
62600;BME280;48671;48.922;2.346;2023-08-31T12:55:52;101036.75;;;20.18;55.84
62600;BME280;48671;48.922;2.346;2023-08-31T12:58:18;101030.38;;;20.20;55.81
62600;BME280;48671;48.922;2.346;2023-08-31T13:00:43;101023.56;;;20.18;56.04
62600;BME280;48671;48.922;2.346;2023-08-31T13:03:09;101032.94;;;20.22;56.87
62600;BME280;48671;48.922;2.346;2023-08-31T13:05:38;101025.84;;;20.22;56.47